GLO1281 SBFZ-SBGR
Flight info
| Callsign | GLO1281 |
|---|---|
| Flight time | 3h 21m |
| Altitude | 36000 |
| Route | ERUGU UZ61 REDAD UZ21 VUNOX |
| Aircraft | B738/M-SDFGIKLORWXY/LB1 |
Departure
| Time | 2026-05-04 13:05 |
|---|---|
| Airport | Pinto Martins International Airport (SBFZ) |
Arrival
| Time | 2026-05-04 16:26 |
|---|---|
| Airport | São Paulo/Guarulhos–Governor André Franco Montoro International Airport (SBGR) |
| Time | Latitude | Longitude | Altitude | Speed | Heading |
|---|---|---|---|---|---|
| 2026-05-04 12:37 | -3.77788 | -38.54005 | 88 ft | 0 kts | 201° |
| 2026-05-04 12:56 | -3.77774 | -38.53999 | 88 ft | 4 kts | 201° |
| 2026-05-04 12:57 | -3.77749 | -38.53989 | 89 ft | 4 kts | 202° |
| 2026-05-04 12:57 | -3.77725 | -38.53979 | 90 ft | 3 kts | 211° |
| 2026-05-04 12:57 | -3.77714 | -38.53970 | 88 ft | 2 kts | 247° |
| 2026-05-04 12:57 | -3.77713 | -38.53959 | 83 ft | 2 kts | 281° |
| 2026-05-04 12:58 | -3.77715 | -38.53949 | 78 ft | 0 kts | 286° |
| 2026-05-04 13:00 | -3.77713 | -38.53956 | 81 ft | 4 kts | 286° |
| 2026-05-04 13:00 | -3.77706 | -38.53983 | 83 ft | 4 kts | 284° |
| 2026-05-04 13:00 | -3.77699 | -38.54010 | 90 ft | 4 kts | 284° |
| 2026-05-04 13:01 | -3.77693 | -38.54036 | 89 ft | 4 kts | 284° |
| 2026-05-04 13:01 | -3.77686 | -38.54062 | 88 ft | 4 kts | 284° |
| 2026-05-04 13:01 | -3.77680 | -38.54087 | 91 ft | 4 kts | 284° |
| 2026-05-04 13:01 | -3.77674 | -38.54112 | 91 ft | 4 kts | 284° |
| 2026-05-04 13:02 | -3.77665 | -38.54147 | 91 ft | 9 kts | 284° |
| 2026-05-04 13:02 | -3.77641 | -38.54232 | 89 ft | 14 kts | 285° |
| 2026-05-04 13:02 | -3.77617 | -38.54316 | 87 ft | 9 kts | 285° |
| 2026-05-04 13:02 | -3.77587 | -38.54364 | 90 ft | 8 kts | 325° |
| 2026-05-04 13:03 | -3.77533 | -38.54381 | 91 ft | 8 kts | 349° |
| 2026-05-04 13:03 | -3.77478 | -38.54389 | 91 ft | 8 kts | 353° |
| 2026-05-04 13:03 | -3.77426 | -38.54379 | 92 ft | 8 kts | 20° |
| 2026-05-04 13:03 | -3.77377 | -38.54362 | 95 ft | 7 kts | 20° |
| 2026-05-04 13:04 | -3.77347 | -38.54326 | 93 ft | 7 kts | 83° |
| 2026-05-04 13:04 | -3.77363 | -38.54258 | 92 ft | 25 kts | 105° |
| 2026-05-04 13:04 | -3.77484 | -38.53806 | 87 ft | 108 kts | 105° |
| 2026-05-04 13:04 | -3.77757 | -38.52845 | 102 ft | 175 kts | 108° |
| 2026-05-04 13:05 | -3.78089 | -38.51604 | 811 ft | 188 kts | 106° |
| 2026-05-04 13:05 | -3.78416 | -38.50318 | 1755 ft | 195 kts | 106° |
| 2026-05-04 13:05 | -3.78851 | -38.48949 | 2133 ft | 220 kts | 120° |
| 2026-05-04 13:05 | -3.80052 | -38.47894 | 2464 ft | 247 kts | 158° |
| 2026-05-04 13:06 | -3.81787 | -38.47684 | 3264 ft | 254 kts | 179° |
| 2026-05-04 13:06 | -3.83536 | -38.47826 | 4147 ft | 259 kts | 183° |
| 2026-05-04 13:06 | -3.85350 | -38.48026 | 4896 ft | 265 kts | 184° |
| 2026-05-04 13:06 | -3.87194 | -38.48229 | 5591 ft | 269 kts | 183° |
| 2026-05-04 13:07 | -3.89057 | -38.48418 | 5929 ft | 271 kts | 182° |
| 2026-05-04 13:07 | -3.90934 | -38.48595 | 5957 ft | 271 kts | 182° |
| 2026-05-04 13:07 | -3.92817 | -38.48765 | 5975 ft | 273 kts | 182° |
| 2026-05-04 13:07 | -3.94714 | -38.48933 | 5990 ft | 274 kts | 182° |
| 2026-05-04 13:08 | -3.96613 | -38.49100 | 5987 ft | 275 kts | 183° |
| 2026-05-04 13:08 | -3.98510 | -38.49423 | 6197 ft | 279 kts | 190° |
| 2026-05-04 13:08 | -4.00400 | -38.49903 | 6929 ft | 281 kts | 192° |
| 2026-05-04 13:08 | -4.02303 | -38.50411 | 7707 ft | 284 kts | 192° |
| 2026-05-04 13:09 | -4.04230 | -38.50924 | 8423 ft | 290 kts | 192° |
| 2026-05-04 13:09 | -4.06196 | -38.51442 | 9161 ft | 294 kts | 192° |
| 2026-05-04 13:09 | -4.08194 | -38.51962 | 9886 ft | 300 kts | 192° |
| 2026-05-04 13:09 | -4.10242 | -38.52491 | 10417 ft | 312 kts | 192° |
| 2026-05-04 13:10 | -4.12422 | -38.53048 | 10584 ft | 336 kts | 192° |
| 2026-05-04 13:10 | -4.14761 | -38.53643 | 10770 ft | 356 kts | 192° |
| 2026-05-04 13:10 | -4.16374 | -38.54054 | 11012 ft | 364 kts | 192° |
| 2026-05-04 13:10 | -4.18852 | -38.54686 | 11568 ft | 370 kts | 192° |
| 2026-05-04 13:11 | -4.21353 | -38.55325 | 12218 ft | 372 kts | 192° |
| 2026-05-04 13:11 | -4.23870 | -38.55967 | 12863 ft | 375 kts | 192° |
| 2026-05-04 13:11 | -4.26415 | -38.56614 | 13456 ft | 379 kts | 192° |
| 2026-05-04 13:11 | -4.28978 | -38.57266 | 14014 ft | 382 kts | 192° |
| 2026-05-04 13:12 | -4.31573 | -38.57926 | 14532 ft | 386 kts | 192° |
| 2026-05-04 13:12 | -4.34183 | -38.58590 | 15071 ft | 389 kts | 192° |
| 2026-05-04 13:12 | -4.36817 | -38.59260 | 15595 ft | 392 kts | 192° |
| 2026-05-04 13:12 | -4.39479 | -38.59937 | 16100 ft | 396 kts | 192° |
| 2026-05-04 13:13 | -4.42161 | -38.60620 | 16574 ft | 399 kts | 192° |
| 2026-05-04 13:13 | -4.44868 | -38.61308 | 17069 ft | 403 kts | 192° |
| 2026-05-04 13:13 | -4.47598 | -38.62002 | 17554 ft | 406 kts | 193° |
| 2026-05-04 13:13 | -4.50330 | -38.62762 | 18019 ft | 410 kts | 196° |
| 2026-05-04 13:14 | -4.53043 | -38.63686 | 18459 ft | 414 kts | 198° |
| 2026-05-04 13:14 | -4.55762 | -38.64683 | 18868 ft | 417 kts | 199° |
| 2026-05-04 13:14 | -4.58481 | -38.65697 | 19290 ft | 419 kts | 199° |
| 2026-05-04 13:14 | -4.61220 | -38.66710 | 19699 ft | 421 kts | 199° |
| 2026-05-04 13:15 | -4.63982 | -38.67717 | 20097 ft | 423 kts | 199° |
| 2026-05-04 13:15 | -4.66755 | -38.68717 | 20493 ft | 425 kts | 198° |
| 2026-05-04 13:15 | -4.69552 | -38.69719 | 20875 ft | 427 kts | 198° |
| 2026-05-04 13:15 | -4.72326 | -38.70709 | 21249 ft | 430 kts | 198° |
| 2026-05-04 13:16 | -4.75187 | -38.71730 | 21627 ft | 432 kts | 198° |
| 2026-05-04 13:16 | -4.78022 | -38.72742 | 21992 ft | 434 kts | 198° |
| 2026-05-04 13:16 | -4.80837 | -38.73747 | 22331 ft | 436 kts | 198° |
| 2026-05-04 13:16 | -4.83703 | -38.74771 | 22692 ft | 438 kts | 198° |
| 2026-05-04 13:17 | -4.86585 | -38.75800 | 23022 ft | 441 kts | 198° |
| 2026-05-04 13:17 | -4.89495 | -38.76840 | 23353 ft | 443 kts | 198° |
| 2026-05-04 13:17 | -4.92414 | -38.77885 | 23650 ft | 445 kts | 198° |
| 2026-05-04 13:17 | -4.95335 | -38.78934 | 23924 ft | 447 kts | 198° |
| 2026-05-04 13:18 | -4.98268 | -38.79988 | 24212 ft | 448 kts | 198° |
| 2026-05-04 13:18 | -5.01201 | -38.81043 | 24501 ft | 449 kts | 198° |
| 2026-05-04 13:18 | -5.04150 | -38.82103 | 24768 ft | 450 kts | 199° |
| 2026-05-04 13:18 | -5.07106 | -38.83166 | 25039 ft | 452 kts | 199° |
| 2026-05-04 13:19 | -5.10070 | -38.84232 | 25297 ft | 453 kts | 199° |
| 2026-05-04 13:19 | -5.13044 | -38.85301 | 25563 ft | 454 kts | 199° |
| 2026-05-04 13:19 | -5.16022 | -38.86372 | 25819 ft | 456 kts | 199° |
| 2026-05-04 13:19 | -5.19015 | -38.87448 | 26090 ft | 456 kts | 199° |
| 2026-05-04 13:20 | -5.22003 | -38.88523 | 26358 ft | 457 kts | 199° |
| 2026-05-04 13:20 | -5.24962 | -38.89587 | 26620 ft | 458 kts | 199° |
| 2026-05-04 13:20 | -5.27967 | -38.90668 | 26871 ft | 459 kts | 199° |
| 2026-05-04 13:20 | -5.30970 | -38.91749 | 27137 ft | 459 kts | 199° |
| 2026-05-04 13:21 | -5.33982 | -38.92833 | 27398 ft | 460 kts | 199° |
| 2026-05-04 13:21 | -5.36998 | -38.93918 | 27659 ft | 460 kts | 200° |
| 2026-05-04 13:21 | -5.40017 | -38.95004 | 27866 ft | 462 kts | 200° |
| 2026-05-04 13:21 | -5.43043 | -38.96093 | 28110 ft | 462 kts | 200° |
| 2026-05-04 13:22 | -5.46072 | -38.97184 | 28350 ft | 463 kts | 200° |
| 2026-05-04 13:22 | -5.49107 | -38.98276 | 28565 ft | 464 kts | 200° |
| 2026-05-04 13:22 | -5.52148 | -38.99371 | 28749 ft | 465 kts | 200° |
| 2026-05-04 13:22 | -5.55200 | -39.00470 | 28933 ft | 467 kts | 200° |
| 2026-05-04 13:23 | -5.58264 | -39.01573 | 29138 ft | 468 kts | 200° |
| 2026-05-04 13:23 | -5.61287 | -39.02662 | 29452 ft | 466 kts | 200° |
| 2026-05-04 13:23 | -5.64335 | -39.03760 | 29775 ft | 464 kts | 200° |
| 2026-05-04 13:23 | -5.67369 | -39.04853 | 30074 ft | 463 kts | 200° |
| 2026-05-04 13:24 | -5.70404 | -39.05947 | 30314 ft | 463 kts | 200° |
| 2026-05-04 13:24 | -5.73432 | -39.07038 | 30554 ft | 462 kts | 200° |
| 2026-05-04 13:24 | -5.76457 | -39.08128 | 30789 ft | 462 kts | 201° |
| 2026-05-04 13:25 | -5.82081 | -39.10149 | 31225 ft | 461 kts | 200° |
| 2026-05-04 13:25 | -5.85101 | -39.11233 | 31479 ft | 460 kts | 201° |
| 2026-05-04 13:25 | -5.88116 | -39.12316 | 31742 ft | 459 kts | 201° |
| 2026-05-04 13:25 | -5.91125 | -39.13397 | 32017 ft | 458 kts | 201° |
| 2026-05-04 13:26 | -5.93665 | -39.14310 | 32238 ft | 458 kts | 201° |
| 2026-05-04 13:26 | -5.96687 | -39.15396 | 32482 ft | 458 kts | 201° |
| 2026-05-04 13:26 | -5.99669 | -39.16468 | 32725 ft | 458 kts | 201° |
| 2026-05-04 13:26 | -6.02665 | -39.17546 | 33000 ft | 456 kts | 201° |
| 2026-05-04 13:27 | -6.05651 | -39.18620 | 33287 ft | 455 kts | 201° |
| 2026-05-04 13:27 | -6.08629 | -39.19691 | 33528 ft | 456 kts | 201° |
| 2026-05-04 13:27 | -6.11559 | -39.20745 | 33765 ft | 456 kts | 201° |
| 2026-05-04 13:27 | -6.13578 | -39.21472 | 33946 ft | 455 kts | 201° |
| 2026-05-04 13:28 | -6.16042 | -39.22359 | 34162 ft | 454 kts | 201° |
| 2026-05-04 13:28 | -6.17989 | -39.23059 | 34331 ft | 453 kts | 201° |
| 2026-05-04 13:28 | -6.20419 | -39.23934 | 34553 ft | 451 kts | 201° |
| 2026-05-04 13:28 | -6.23369 | -39.24996 | 34841 ft | 449 kts | 201° |
| 2026-05-04 13:29 | -6.26270 | -39.26040 | 35086 ft | 448 kts | 201° |
| 2026-05-04 13:29 | -6.29194 | -39.27093 | 35351 ft | 446 kts | 201° |
| 2026-05-04 13:29 | -6.32111 | -39.28143 | 35622 ft | 444 kts | 201° |
| 2026-05-04 13:29 | -6.35018 | -39.29190 | 35867 ft | 443 kts | 201° |
| 2026-05-04 13:30 | -6.37921 | -39.30236 | 36044 ft | 443 kts | 201° |
| 2026-05-04 13:30 | -6.39817 | -39.30920 | 36017 ft | 446 kts | 201° |
| 2026-05-04 13:30 | -6.45130 | -39.32836 | 36035 ft | 444 kts | 201° |
| 2026-05-04 13:31 | -6.50398 | -39.34736 | 36038 ft | 440 kts | 201° |
| 2026-05-04 13:31 | -6.55105 | -39.36434 | 36033 ft | 438 kts | 201° |
| 2026-05-04 13:32 | -6.60263 | -39.38295 | 36038 ft | 435 kts | 201° |
| 2026-05-04 13:32 | -6.65447 | -39.40166 | 36046 ft | 434 kts | 201° |
| 2026-05-04 13:33 | -6.70190 | -39.41879 | 36045 ft | 435 kts | 201° |
| 2026-05-04 13:33 | -6.75891 | -39.43938 | 36048 ft | 435 kts | 201° |
| 2026-05-04 13:34 | -6.81570 | -39.45989 | 36052 ft | 437 kts | 201° |
| 2026-05-04 13:34 | -6.87311 | -39.48064 | 36053 ft | 439 kts | 201° |
| 2026-05-04 13:35 | -6.95765 | -39.51118 | 36054 ft | 441 kts | 201° |
| 2026-05-04 13:36 | -7.01570 | -39.53216 | 36055 ft | 442 kts | 201° |
| 2026-05-04 13:36 | -7.06840 | -39.55121 | 36052 ft | 443 kts | 201° |
| 2026-05-04 13:37 | -7.11591 | -39.56839 | 36064 ft | 443 kts | 201° |
| 2026-05-04 13:37 | -7.16617 | -39.58658 | 36071 ft | 442 kts | 201° |
| 2026-05-04 13:38 | -7.21514 | -39.60430 | 36064 ft | 441 kts | 201° |
| 2026-05-04 13:38 | -7.26181 | -39.62119 | 36074 ft | 440 kts | 201° |
| 2026-05-04 13:39 | -7.31939 | -39.64204 | 36068 ft | 439 kts | 201° |
| 2026-05-04 13:39 | -7.37678 | -39.66282 | 36069 ft | 438 kts | 201° |
| 2026-05-04 13:40 | -7.43400 | -39.68355 | 36080 ft | 436 kts | 201° |
| 2026-05-04 13:40 | -7.49107 | -39.70423 | 36089 ft | 435 kts | 201° |
| 2026-05-04 13:41 | -7.54803 | -39.72487 | 36079 ft | 435 kts | 202° |
| 2026-05-04 13:41 | -7.60494 | -39.74551 | 36079 ft | 434 kts | 201° |
| 2026-05-04 13:42 | -7.69020 | -39.77644 | 36086 ft | 434 kts | 202° |
| 2026-05-04 13:42 | -7.74709 | -39.79708 | 36077 ft | 435 kts | 202° |
| 2026-05-04 13:43 | -7.80415 | -39.81778 | 36080 ft | 435 kts | 201° |
| 2026-05-04 13:43 | -7.86116 | -39.83848 | 36085 ft | 436 kts | 201° |
| 2026-05-04 13:44 | -7.91828 | -39.85923 | 36085 ft | 436 kts | 201° |
| 2026-05-04 13:44 | -7.97549 | -39.88001 | 36083 ft | 437 kts | 201° |
| 2026-05-04 13:45 | -8.03277 | -39.90082 | 36076 ft | 437 kts | 201° |
| 2026-05-04 13:45 | -8.08969 | -39.92151 | 36076 ft | 437 kts | 201° |
| 2026-05-04 13:46 | -8.14692 | -39.94231 | 36075 ft | 437 kts | 201° |
| 2026-05-04 13:46 | -8.20425 | -39.96316 | 36077 ft | 437 kts | 201° |
| 2026-05-04 13:47 | -8.26135 | -39.98394 | 36084 ft | 436 kts | 201° |
| 2026-05-04 13:47 | -8.31844 | -40.00471 | 36083 ft | 436 kts | 201° |
| 2026-05-04 13:48 | -8.37546 | -40.02547 | 36079 ft | 435 kts | 201° |
| 2026-05-04 13:48 | -8.43248 | -40.04623 | 36083 ft | 435 kts | 201° |
| 2026-05-04 13:49 | -8.48937 | -40.06695 | 36083 ft | 435 kts | 201° |
| 2026-05-04 13:49 | -8.54628 | -40.08769 | 36080 ft | 435 kts | 201° |
| 2026-05-04 13:50 | -8.60332 | -40.10848 | 36082 ft | 435 kts | 201° |
| 2026-05-04 13:50 | -8.66028 | -40.12925 | 36081 ft | 435 kts | 201° |
| 2026-05-04 13:51 | -8.71691 | -40.14990 | 36079 ft | 436 kts | 201° |
| 2026-05-04 13:51 | -8.77398 | -40.17072 | 36079 ft | 436 kts | 201° |
| 2026-05-04 13:52 | -8.85962 | -40.20198 | 36076 ft | 436 kts | 201° |
| 2026-05-04 13:53 | -8.91677 | -40.22285 | 36081 ft | 437 kts | 201° |
| 2026-05-04 13:53 | -8.97395 | -40.24373 | 36079 ft | 437 kts | 201° |
| 2026-05-04 13:54 | -9.05949 | -40.27499 | 36078 ft | 438 kts | 201° |
| 2026-05-04 13:55 | -9.14556 | -40.30646 | 36082 ft | 439 kts | 201° |
| 2026-05-04 13:55 | -9.23175 | -40.33799 | 36098 ft | 439 kts | 201° |
| 2026-05-04 13:56 | -9.28922 | -40.35903 | 36111 ft | 439 kts | 201° |
| 2026-05-04 13:57 | -9.37547 | -40.39060 | 36120 ft | 439 kts | 201° |
| 2026-05-04 13:58 | -9.48066 | -40.42911 | 36115 ft | 439 kts | 201° |
| 2026-05-04 13:58 | -9.56674 | -40.46066 | 36082 ft | 438 kts | 201° |
| 2026-05-04 13:59 | -9.62406 | -40.48168 | 36085 ft | 438 kts | 201° |
| 2026-05-04 14:00 | -9.71916 | -40.51656 | 36084 ft | 437 kts | 201° |
| 2026-05-04 14:00 | -9.79524 | -40.54449 | 36088 ft | 437 kts | 201° |
| 2026-05-04 14:01 | -9.85235 | -40.56547 | 36091 ft | 436 kts | 201° |
| 2026-05-04 14:02 | -9.93801 | -40.59695 | 36095 ft | 436 kts | 201° |
| 2026-05-04 14:02 | -9.99507 | -40.61794 | 36098 ft | 436 kts | 201° |
| 2026-05-04 14:03 | -10.05213 | -40.63893 | 36098 ft | 436 kts | 201° |
| 2026-05-04 14:03 | -10.10916 | -40.65992 | 36103 ft | 436 kts | 201° |
| 2026-05-04 14:04 | -10.19478 | -40.69145 | 36105 ft | 436 kts | 201° |
| 2026-05-04 14:04 | -10.25189 | -40.71249 | 36101 ft | 437 kts | 201° |
| 2026-05-04 14:05 | -10.33752 | -40.74405 | 36114 ft | 437 kts | 201° |
| 2026-05-04 14:06 | -10.39463 | -40.76511 | 36110 ft | 437 kts | 201° |
| 2026-05-04 14:06 | -10.45177 | -40.78619 | 36112 ft | 437 kts | 201° |
| 2026-05-04 14:07 | -10.50898 | -40.80730 | 36107 ft | 437 kts | 201° |
| 2026-05-04 14:07 | -10.56621 | -40.82844 | 36112 ft | 438 kts | 201° |
| 2026-05-04 14:08 | -10.62346 | -40.84959 | 36113 ft | 438 kts | 201° |
| 2026-05-04 14:08 | -10.68074 | -40.87075 | 36112 ft | 438 kts | 201° |
| 2026-05-04 14:09 | -10.76633 | -40.90235 | 36114 ft | 438 kts | 201° |
| 2026-05-04 14:10 | -10.85236 | -40.93414 | 36112 ft | 438 kts | 201° |
| 2026-05-04 14:10 | -10.90971 | -40.95536 | 36111 ft | 438 kts | 201° |
| 2026-05-04 14:11 | -10.96699 | -40.97655 | 36112 ft | 438 kts | 201° |
| 2026-05-04 14:11 | -11.05283 | -41.00836 | 36115 ft | 438 kts | 201° |
| 2026-05-04 14:12 | -11.10995 | -41.02958 | 36121 ft | 437 kts | 201° |
| 2026-05-04 14:13 | -11.19573 | -41.06136 | 36124 ft | 436 kts | 201° |
| 2026-05-04 14:13 | -11.25250 | -41.08239 | 36128 ft | 436 kts | 201° |
| 2026-05-04 14:14 | -11.30956 | -41.10356 | 36125 ft | 436 kts | 201° |
| 2026-05-04 14:14 | -11.39508 | -41.13529 | 36130 ft | 435 kts | 201° |
| 2026-05-04 14:15 | -11.50878 | -41.17753 | 36135 ft | 435 kts | 201° |
| 2026-05-04 14:16 | -11.59405 | -41.20920 | 36131 ft | 434 kts | 201° |
| 2026-05-04 14:17 | -11.67921 | -41.24087 | 36136 ft | 435 kts | 201° |
| 2026-05-04 14:18 | -11.76413 | -41.27247 | 36141 ft | 435 kts | 201° |
| 2026-05-04 14:19 | -11.87789 | -41.31484 | 36141 ft | 435 kts | 201° |
| 2026-05-04 14:19 | -11.93481 | -41.33606 | 36139 ft | 436 kts | 201° |
| 2026-05-04 14:20 | -11.99180 | -41.35731 | 36140 ft | 436 kts | 201° |
| 2026-05-04 14:20 | -12.04877 | -41.37856 | 36146 ft | 436 kts | 201° |
| 2026-05-04 14:21 | -12.13433 | -41.41050 | 36141 ft | 436 kts | 201° |
| 2026-05-04 14:21 | -12.19140 | -41.43181 | 36143 ft | 437 kts | 201° |
| 2026-05-04 14:22 | -12.24846 | -41.45313 | 36147 ft | 437 kts | 201° |
| 2026-05-04 14:22 | -12.30554 | -41.47447 | 36145 ft | 437 kts | 201° |
| 2026-05-04 14:23 | -12.39134 | -41.50656 | 36144 ft | 438 kts | 201° |
| 2026-05-04 14:24 | -12.44815 | -41.52782 | 36152 ft | 438 kts | 201° |
| 2026-05-04 14:24 | -12.50548 | -41.54929 | 36149 ft | 439 kts | 201° |
| 2026-05-04 14:25 | -12.56280 | -41.57076 | 36145 ft | 439 kts | 201° |
| 2026-05-04 14:25 | -12.64877 | -41.60298 | 36157 ft | 439 kts | 201° |
| 2026-05-04 14:26 | -12.70614 | -41.62450 | 36151 ft | 439 kts | 201° |
| 2026-05-04 14:26 | -12.76347 | -41.64601 | 36152 ft | 439 kts | 201° |
| 2026-05-04 14:27 | -12.82077 | -41.66752 | 36158 ft | 438 kts | 201° |
| 2026-05-04 14:27 | -12.87806 | -41.68904 | 36159 ft | 438 kts | 201° |
| 2026-05-04 14:28 | -12.93529 | -41.71055 | 36154 ft | 438 kts | 202° |
| 2026-05-04 14:28 | -12.99250 | -41.73205 | 36160 ft | 437 kts | 202° |
| 2026-05-04 14:29 | -13.10673 | -41.77503 | 36161 ft | 436 kts | 202° |
| 2026-05-04 14:30 | -13.16334 | -41.79635 | 36160 ft | 436 kts | 202° |
| 2026-05-04 14:31 | -13.24864 | -41.82849 | 36160 ft | 435 kts | 202° |
| 2026-05-04 14:32 | -13.36236 | -41.87137 | 36155 ft | 436 kts | 202° |
| 2026-05-04 14:32 | -13.41923 | -41.89284 | 36153 ft | 436 kts | 202° |
| 2026-05-04 14:33 | -13.47615 | -41.91433 | 36152 ft | 436 kts | 202° |
| 2026-05-04 14:33 | -13.53305 | -41.93583 | 36145 ft | 436 kts | 202° |
| 2026-05-04 14:34 | -13.59007 | -41.95738 | 36145 ft | 436 kts | 202° |
| 2026-05-04 14:34 | -13.64704 | -41.97893 | 36142 ft | 437 kts | 202° |
| 2026-05-04 14:35 | -13.70368 | -42.00038 | 36151 ft | 437 kts | 202° |
| 2026-05-04 14:35 | -13.76072 | -42.02198 | 36141 ft | 437 kts | 202° |
| 2026-05-04 14:36 | -13.81811 | -42.04374 | 36148 ft | 437 kts | 202° |
| 2026-05-04 14:36 | -13.87473 | -42.06521 | 36141 ft | 436 kts | 202° |
| 2026-05-04 14:37 | -13.93166 | -42.08681 | 36138 ft | 436 kts | 202° |
| 2026-05-04 14:37 | -13.98843 | -42.10836 | 36143 ft | 435 kts | 202° |
| 2026-05-04 14:38 | -14.04521 | -42.12993 | 36141 ft | 434 kts | 202° |
| 2026-05-04 14:38 | -14.10179 | -42.15143 | 36145 ft | 433 kts | 202° |
| 2026-05-04 14:39 | -14.15834 | -42.17294 | 36143 ft | 433 kts | 202° |
| 2026-05-04 14:39 | -14.21484 | -42.19443 | 36149 ft | 432 kts | 202° |
| 2026-05-04 14:40 | -14.29943 | -42.22665 | 36146 ft | 432 kts | 202° |
| 2026-05-04 14:40 | -14.35580 | -42.24808 | 36143 ft | 432 kts | 201° |
| 2026-05-04 14:41 | -14.41341 | -42.26628 | 36138 ft | 433 kts | 198° |
| 2026-05-04 14:42 | -14.52931 | -42.29941 | 36145 ft | 433 kts | 198° |
| 2026-05-04 14:42 | -14.58739 | -42.31635 | 36137 ft | 434 kts | 199° |
| 2026-05-04 14:43 | -14.64550 | -42.33343 | 36138 ft | 434 kts | 199° |
| 2026-05-04 14:43 | -14.70354 | -42.35053 | 36145 ft | 434 kts | 199° |
| 2026-05-04 14:44 | -14.76157 | -42.36763 | 36147 ft | 434 kts | 199° |
| 2026-05-04 14:44 | -14.81961 | -42.38475 | 36148 ft | 434 kts | 199° |
| 2026-05-04 14:45 | -14.87764 | -42.40187 | 36145 ft | 433 kts | 199° |
| 2026-05-04 14:45 | -14.93564 | -42.41899 | 36153 ft | 433 kts | 199° |
| 2026-05-04 14:46 | -14.98383 | -42.43321 | 36149 ft | 433 kts | 199° |
| 2026-05-04 14:46 | -15.03726 | -42.44900 | 36150 ft | 433 kts | 199° |
| 2026-05-04 14:47 | -15.09527 | -42.46615 | 36151 ft | 432 kts | 199° |
| 2026-05-04 14:47 | -15.15310 | -42.48325 | 36151 ft | 432 kts | 199° |
| 2026-05-04 14:48 | -15.21091 | -42.50036 | 36150 ft | 432 kts | 199° |
| 2026-05-04 14:48 | -15.26344 | -42.51591 | 36150 ft | 431 kts | 199° |
| 2026-05-04 14:49 | -15.31471 | -42.53110 | 36146 ft | 431 kts | 199° |
| 2026-05-04 14:49 | -15.37229 | -42.54817 | 36156 ft | 430 kts | 199° |
| 2026-05-04 14:50 | -15.42982 | -42.56523 | 36152 ft | 429 kts | 200° |
| 2026-05-04 14:50 | -15.48723 | -42.58227 | 36150 ft | 429 kts | 200° |
| 2026-05-04 14:51 | -15.54463 | -42.59931 | 36160 ft | 429 kts | 200° |
| 2026-05-04 14:51 | -15.60200 | -42.61636 | 36147 ft | 429 kts | 200° |
| 2026-05-04 14:52 | -15.65895 | -42.63329 | 36161 ft | 429 kts | 200° |
| 2026-05-04 14:52 | -15.71636 | -42.65037 | 36159 ft | 429 kts | 200° |
| 2026-05-04 14:53 | -15.77382 | -42.66747 | 36157 ft | 430 kts | 200° |
| 2026-05-04 14:53 | -15.83133 | -42.68460 | 36155 ft | 430 kts | 200° |
| 2026-05-04 14:54 | -15.88931 | -42.70188 | 36156 ft | 431 kts | 200° |
| 2026-05-04 14:54 | -15.94658 | -42.71896 | 36163 ft | 431 kts | 200° |
| 2026-05-04 14:55 | -16.00430 | -42.73617 | 36155 ft | 432 kts | 200° |
| 2026-05-04 14:55 | -16.06212 | -42.75343 | 36161 ft | 432 kts | 200° |
| 2026-05-04 14:56 | -16.12004 | -42.77073 | 36161 ft | 433 kts | 200° |
| 2026-05-04 14:56 | -16.17802 | -42.78806 | 36165 ft | 433 kts | 200° |
| 2026-05-04 14:57 | -16.23591 | -42.80538 | 36174 ft | 433 kts | 200° |
| 2026-05-04 14:57 | -16.29375 | -42.82269 | 36173 ft | 433 kts | 200° |
| 2026-05-04 14:58 | -16.35121 | -42.83989 | 36170 ft | 432 kts | 200° |
| 2026-05-04 14:58 | -16.40940 | -42.85731 | 36175 ft | 432 kts | 200° |
| 2026-05-04 14:59 | -16.46676 | -42.87451 | 36168 ft | 432 kts | 200° |
| 2026-05-04 15:00 | -16.55320 | -42.90044 | 36177 ft | 430 kts | 201° |
| 2026-05-04 15:00 | -16.61078 | -42.91774 | 36175 ft | 430 kts | 201° |
| 2026-05-04 15:01 | -16.69694 | -42.94364 | 36176 ft | 431 kts | 201° |
| 2026-05-04 15:01 | -16.75469 | -42.96101 | 36181 ft | 432 kts | 201° |
| 2026-05-04 15:02 | -16.81244 | -42.97839 | 36177 ft | 432 kts | 201° |
| 2026-05-04 15:02 | -16.87028 | -42.99581 | 36180 ft | 432 kts | 201° |
| 2026-05-04 15:03 | -16.92806 | -43.01322 | 36184 ft | 432 kts | 201° |
| 2026-05-04 15:03 | -16.98571 | -43.03060 | 36196 ft | 431 kts | 201° |
| 2026-05-04 15:04 | -17.04331 | -43.04798 | 36192 ft | 430 kts | 201° |
| 2026-05-04 15:04 | -17.10085 | -43.06531 | 36179 ft | 430 kts | 201° |
| 2026-05-04 15:05 | -17.15819 | -43.08266 | 36185 ft | 428 kts | 201° |
| 2026-05-04 15:05 | -17.21502 | -43.09985 | 36176 ft | 427 kts | 201° |
| 2026-05-04 15:06 | -17.27207 | -43.11712 | 36175 ft | 426 kts | 201° |
| 2026-05-04 15:07 | -17.35746 | -43.14297 | 36171 ft | 425 kts | 201° |
| 2026-05-04 15:07 | -17.41420 | -43.16017 | 36175 ft | 424 kts | 201° |
| 2026-05-04 15:08 | -17.47096 | -43.17739 | 36174 ft | 424 kts | 201° |
| 2026-05-04 15:08 | -17.52769 | -43.19460 | 36178 ft | 424 kts | 201° |
| 2026-05-04 15:09 | -17.58433 | -43.21179 | 36179 ft | 424 kts | 201° |
| 2026-05-04 15:09 | -17.64063 | -43.22888 | 36185 ft | 424 kts | 201° |
| 2026-05-04 15:10 | -17.72556 | -43.25468 | 36180 ft | 424 kts | 201° |
| 2026-05-04 15:11 | -17.81052 | -43.28054 | 36189 ft | 424 kts | 201° |
| 2026-05-04 15:11 | -17.86717 | -43.29779 | 36191 ft | 424 kts | 202° |
| 2026-05-04 15:12 | -17.92391 | -43.31508 | 36197 ft | 424 kts | 202° |
| 2026-05-04 15:12 | -17.98063 | -43.33237 | 36193 ft | 425 kts | 202° |
| 2026-05-04 15:13 | -18.03740 | -43.34970 | 36198 ft | 425 kts | 202° |
| 2026-05-04 15:13 | -18.09415 | -43.36703 | 36193 ft | 425 kts | 202° |
| 2026-05-04 15:14 | -18.15086 | -43.38434 | 36184 ft | 424 kts | 201° |
| 2026-05-04 15:14 | -18.20741 | -43.40164 | 36212 ft | 423 kts | 202° |
| 2026-05-04 15:15 | -18.25994 | -43.42161 | 36196 ft | 415 kts | 213° |
| 2026-05-04 15:15 | -18.31049 | -43.45047 | 36206 ft | 413 kts | 214° |
| 2026-05-04 15:16 | -18.38629 | -43.49388 | 36213 ft | 413 kts | 213° |
| 2026-05-04 15:17 | -18.46228 | -43.53683 | 36202 ft | 413 kts | 213° |
| 2026-05-04 15:17 | -18.53804 | -43.57968 | 36208 ft | 411 kts | 214° |
| 2026-05-04 15:18 | -18.58843 | -43.60823 | 36206 ft | 411 kts | 214° |
| 2026-05-04 15:19 | -18.66387 | -43.65104 | 36195 ft | 410 kts | 214° |
| 2026-05-04 15:19 | -18.73889 | -43.69365 | 36203 ft | 410 kts | 214° |
| 2026-05-04 15:20 | -18.78912 | -43.72221 | 36198 ft | 410 kts | 214° |
| 2026-05-04 15:20 | -18.83934 | -43.75077 | 36190 ft | 409 kts | 214° |
| 2026-05-04 15:21 | -18.88955 | -43.77935 | 36193 ft | 410 kts | 214° |
| 2026-05-04 15:22 | -18.96479 | -43.82221 | 36189 ft | 410 kts | 214° |
| 2026-05-04 15:22 | -19.03992 | -43.86505 | 36188 ft | 409 kts | 214° |
| 2026-05-04 15:23 | -19.08994 | -43.89361 | 36192 ft | 409 kts | 214° |
| 2026-05-04 15:23 | -19.14001 | -43.92221 | 36187 ft | 409 kts | 214° |
| 2026-05-04 15:24 | -19.24007 | -43.97942 | 36189 ft | 409 kts | 214° |
| 2026-05-04 15:25 | -19.28957 | -44.00775 | 36191 ft | 408 kts | 214° |
| 2026-05-04 15:26 | -19.36446 | -44.05066 | 36210 ft | 408 kts | 214° |
| 2026-05-04 15:26 | -19.43930 | -44.09357 | 36225 ft | 407 kts | 214° |
| 2026-05-04 15:27 | -19.51401 | -44.13646 | 36242 ft | 407 kts | 214° |
| 2026-05-04 15:28 | -19.58862 | -44.17935 | 36245 ft | 407 kts | 215° |
| 2026-05-04 15:29 | -19.66323 | -44.22225 | 36238 ft | 406 kts | 215° |
| 2026-05-04 15:30 | -19.83688 | -44.32236 | 36212 ft | 406 kts | 215° |
| 2026-05-04 15:31 | -19.91141 | -44.36538 | 36201 ft | 406 kts | 215° |
| 2026-05-04 15:32 | -20.03530 | -44.43703 | 36200 ft | 405 kts | 215° |
| 2026-05-04 15:34 | -20.14957 | -44.50513 | 36199 ft | 398 kts | 221° |
| 2026-05-04 15:34 | -20.21635 | -44.55742 | 36184 ft | 398 kts | 222° |
| 2026-05-04 15:35 | -20.28326 | -44.60978 | 36191 ft | 399 kts | 222° |
| 2026-05-04 15:36 | -20.35063 | -44.66231 | 36188 ft | 401 kts | 222° |
| 2026-05-04 15:36 | -20.39540 | -44.69723 | 36187 ft | 401 kts | 222° |
| 2026-05-04 15:37 | -20.44043 | -44.73239 | 36197 ft | 401 kts | 222° |
| 2026-05-04 15:37 | -20.48550 | -44.76760 | 36192 ft | 402 kts | 222° |
| 2026-05-04 15:38 | -20.53067 | -44.80286 | 36191 ft | 402 kts | 222° |
| 2026-05-04 15:38 | -20.57581 | -44.83810 | 36180 ft | 402 kts | 222° |
| 2026-05-04 15:39 | -20.62090 | -44.87334 | 36187 ft | 402 kts | 222° |
| 2026-05-04 15:40 | -20.68835 | -44.92612 | 36187 ft | 400 kts | 222° |
| 2026-05-04 15:40 | -20.73322 | -44.96126 | 36184 ft | 399 kts | 222° |
| 2026-05-04 15:41 | -20.77790 | -44.99633 | 36190 ft | 398 kts | 222° |
| 2026-05-04 15:41 | -20.82252 | -45.03143 | 36191 ft | 398 kts | 222° |
| 2026-05-04 15:42 | -20.86708 | -45.06652 | 36187 ft | 398 kts | 222° |
| 2026-05-04 15:42 | -20.91142 | -45.10144 | 36176 ft | 398 kts | 222° |
| 2026-05-04 15:43 | -20.95602 | -45.13653 | 36180 ft | 398 kts | 222° |
| 2026-05-04 15:43 | -21.00058 | -45.17162 | 36184 ft | 398 kts | 222° |
| 2026-05-04 15:44 | -21.04520 | -45.20681 | 36182 ft | 399 kts | 222° |
| 2026-05-04 15:44 | -21.08882 | -45.24123 | 36190 ft | 398 kts | 222° |
| 2026-05-04 15:45 | -21.13062 | -45.27424 | 36172 ft | 398 kts | 222° |
| 2026-05-04 15:45 | -21.17237 | -45.30723 | 36177 ft | 398 kts | 222° |
| 2026-05-04 15:46 | -21.21696 | -45.34251 | 36185 ft | 398 kts | 222° |
| 2026-05-04 15:46 | -21.26153 | -45.37778 | 36180 ft | 398 kts | 222° |
| 2026-05-04 15:47 | -21.30604 | -45.41305 | 36186 ft | 398 kts | 222° |
| 2026-05-04 15:47 | -21.35060 | -45.44838 | 36189 ft | 398 kts | 222° |
| 2026-05-04 15:48 | -21.39517 | -45.48373 | 36192 ft | 397 kts | 222° |
| 2026-05-04 15:48 | -21.46182 | -45.53667 | 36190 ft | 397 kts | 222° |
| 2026-05-04 15:49 | -21.50593 | -45.57171 | 36187 ft | 397 kts | 222° |
| 2026-05-04 15:49 | -21.55057 | -45.60678 | 36184 ft | 397 kts | 221° |
| 2026-05-04 15:50 | -21.59514 | -45.64170 | 36188 ft | 397 kts | 221° |
| 2026-05-04 15:50 | -21.63971 | -45.67668 | 36194 ft | 397 kts | 221° |
| 2026-05-04 15:51 | -21.68423 | -45.71169 | 36192 ft | 397 kts | 221° |
| 2026-05-04 15:51 | -21.72880 | -45.74678 | 36184 ft | 397 kts | 221° |
| 2026-05-04 15:52 | -21.77330 | -45.78183 | 36187 ft | 393 kts | 221° |
| 2026-05-04 15:52 | -21.79502 | -45.79890 | 36174 ft | 378 kts | 222° |
| 2026-05-04 15:52 | -21.81590 | -45.81529 | 36172 ft | 365 kts | 222° |
| 2026-05-04 15:53 | -21.83598 | -45.83108 | 36172 ft | 351 kts | 222° |
| 2026-05-04 15:53 | -21.85534 | -45.84634 | 36167 ft | 339 kts | 222° |
| 2026-05-04 15:53 | -21.87399 | -45.86104 | 36168 ft | 326 kts | 223° |
| 2026-05-04 15:53 | -21.89224 | -45.87549 | 36183 ft | 327 kts | 223° |
| 2026-05-04 15:54 | -21.92959 | -45.90517 | 36200 ft | 340 kts | 223° |
| 2026-05-04 15:54 | -21.96834 | -45.93589 | 36201 ft | 350 kts | 222° |
| 2026-05-04 15:55 | -22.00775 | -45.96706 | 36202 ft | 353 kts | 222° |
| 2026-05-04 15:55 | -22.04693 | -45.99802 | 36181 ft | 344 kts | 222° |
| 2026-05-04 15:56 | -22.08516 | -46.02830 | 36194 ft | 341 kts | 222° |
| 2026-05-04 15:56 | -22.12316 | -46.05847 | 36198 ft | 342 kts | 222° |
| 2026-05-04 15:57 | -22.16156 | -46.08893 | 36199 ft | 343 kts | 222° |
| 2026-05-04 15:57 | -22.20006 | -46.11950 | 36192 ft | 345 kts | 222° |
| 2026-05-04 15:58 | -22.23883 | -46.15032 | 36184 ft | 347 kts | 222° |
| 2026-05-04 15:58 | -22.27769 | -46.18121 | 36190 ft | 347 kts | 222° |
| 2026-05-04 15:59 | -22.31791 | -46.21031 | 36173 ft | 355 kts | 210° |
| 2026-05-04 15:59 | -22.34192 | -46.21797 | 36185 ft | 366 kts | 198° |
| 2026-05-04 15:59 | -22.36717 | -46.22218 | 36189 ft | 369 kts | 196° |
| 2026-05-04 16:00 | -22.41819 | -46.22921 | 36183 ft | 369 kts | 196° |
| 2026-05-04 16:00 | -22.46910 | -46.23666 | 36182 ft | 368 kts | 196° |
| 2026-05-04 16:01 | -22.51982 | -46.24450 | 36174 ft | 368 kts | 197° |
| 2026-05-04 16:01 | -22.57053 | -46.25238 | 36177 ft | 368 kts | 196° |
| 2026-05-04 16:02 | -22.62115 | -46.26025 | 36175 ft | 367 kts | 196° |
| 2026-05-04 16:03 | -22.69665 | -46.27199 | 36171 ft | 366 kts | 197° |
| 2026-05-04 16:03 | -22.74701 | -46.27983 | 36171 ft | 365 kts | 196° |
| 2026-05-04 16:04 | -22.79534 | -46.29294 | 36176 ft | 348 kts | 215° |
| 2026-05-04 16:04 | -22.83392 | -46.32288 | 36157 ft | 334 kts | 236° |
| 2026-05-04 16:04 | -22.84555 | -46.34441 | 36164 ft | 332 kts | 249° |
| 2026-05-04 16:05 | -22.85181 | -46.36850 | 36177 ft | 334 kts | 261° |
| 2026-05-04 16:05 | -22.85324 | -46.39377 | 36163 ft | 339 kts | 271° |
| 2026-05-04 16:06 | -22.83559 | -46.46931 | 36167 ft | 346 kts | 275° |
| 2026-05-04 16:06 | -22.82694 | -46.53709 | 36135 ft | 332 kts | 269° |
| 2026-05-04 16:07 | -22.82871 | -46.57016 | 36147 ft | 328 kts | 263° |
| 2026-05-04 16:07 | -22.83736 | -46.64319 | 34926 ft | 330 kts | 252° |
| 2026-05-04 16:08 | -22.84472 | -46.66745 | 33521 ft | 350 kts | 252° |
| 2026-05-04 16:08 | -22.87405 | -46.74123 | 31014 ft | 361 kts | 225° |
| 2026-05-04 16:09 | -22.92036 | -46.76186 | 29824 ft | 371 kts | 192° |
| 2026-05-04 16:09 | -22.97217 | -46.75550 | 28426 ft | 386 kts | 166° |
| 2026-05-04 16:10 | -23.01734 | -46.72274 | 27198 ft | 392 kts | 146° |
| 2026-05-04 16:11 | -23.07898 | -46.66573 | 25438 ft | 382 kts | 146° |
| 2026-05-04 16:11 | -23.09926 | -46.64730 | 24906 ft | 378 kts | 146° |
| 2026-05-04 16:12 | -23.15913 | -46.59361 | 23256 ft | 368 kts | 146° |
| 2026-05-04 16:12 | -23.22401 | -46.56978 | 22279 ft | 309 kts | 194° |
| 2026-05-04 16:13 | -23.26231 | -46.58674 | 21282 ft | 295 kts | 216° |
| 2026-05-04 16:13 | -23.29623 | -46.61145 | 20342 ft | 290 kts | 220° |
| 2026-05-04 16:14 | -23.32569 | -46.63983 | 19070 ft | 279 kts | 226° |
| 2026-05-04 16:14 | -23.35406 | -46.66864 | 17299 ft | 278 kts | 226° |
| 2026-05-04 16:15 | -23.39551 | -46.71168 | 14976 ft | 271 kts | 226° |
| 2026-05-04 16:16 | -23.42137 | -46.73921 | 14312 ft | 241 kts | 226° |
| 2026-05-04 16:16 | -23.45602 | -46.77627 | 12757 ft | 232 kts | 226° |
| 2026-05-04 16:17 | -23.47886 | -46.80078 | 11711 ft | 229 kts | 226° |
| 2026-05-04 16:18 | -23.50277 | -46.82357 | 10682 ft | 232 kts | 204° |
| 2026-05-04 16:18 | -23.51342 | -46.82630 | 10321 ft | 235 kts | 183° |
| 2026-05-04 16:19 | -23.54285 | -46.79371 | 9305 ft | 203 kts | 78° |
| 2026-05-04 16:19 | -23.53276 | -46.76680 | 8821 ft | 212 kts | 63° |
| 2026-05-04 16:20 | -23.51607 | -46.72693 | 8099 ft | 187 kts | 63° |
| 2026-05-04 16:20 | -23.50448 | -46.70203 | 7426 ft | 181 kts | 59° |
| 2026-05-04 16:21 | -23.48917 | -46.67000 | 6546 ft | 177 kts | 62° |
| 2026-05-04 16:22 | -23.48130 | -46.64485 | 5868 ft | 175 kts | 70° |
| 2026-05-04 16:22 | -23.47119 | -46.60742 | 5081 ft | 170 kts | 71° |
| 2026-05-04 16:23 | -23.46136 | -46.57076 | 4150 ft | 162 kts | 72° |
| 2026-05-04 16:24 | -23.44926 | -46.52600 | 3239 ft | 153 kts | 75° |
| 2026-05-04 16:25 | -23.44350 | -46.50441 | 2861 ft | 150 kts | 74° |
| 2026-05-04 16:26 | -23.43361 | -46.46908 | 2464 ft | 29 kts | 38° |
| 2026-05-04 16:26 | -23.42932 | -46.46765 | 2466 ft | 15 kts | 343° |
| 2026-05-04 16:27 | -23.42785 | -46.46815 | 2467 ft | 1 kts | 328° |
| 2026-05-04 16:28 | -23.42819 | -46.47032 | 2467 ft | 14 kts | 253° |
| 2026-05-04 16:28 | -23.42897 | -46.47314 | 2465 ft | 12 kts | 254° |
| 2026-05-04 16:29 | -23.42985 | -46.47657 | 2464 ft | 11 kts | 252° |
| 2026-05-04 16:30 | -23.42937 | -46.47837 | 2466 ft | 10 kts | 358° |
| 2026-05-04 16:31 | -23.42832 | -46.47889 | 2467 ft | 6 kts | 278° |
| 2026-05-04 16:31 | -23.42835 | -46.47945 | 2464 ft | 0 kts | 264° |